sensor_id;sensor_type;location;lat;lon;timestamp;temperature;humidity
52669;DHT22;59898;52.786;6.892;2023-05-21T08:01:17;16.40;99.90
52669;DHT22;59898;52.786;6.892;2023-05-21T08:04:37;16.90;99.90
52669;DHT22;59898;52.786;6.892;2023-05-21T08:07:58;17.60;99.90
52669;DHT22;59898;52.786;6.892;2023-05-21T08:11:19;18.30;99.90
52669;DHT22;59898;52.786;6.892;2023-05-21T08:14:41;18.90;99.90
52669;DHT22;59898;52.786;6.892;2023-05-21T08:18:02;19.40;99.90
52669;DHT22;59898;52.786;6.892;2023-05-21T08:21:22;19.90;99.90
52669;DHT22;59898;52.786;6.892;2023-05-21T08:24:43;20.30;99.90
52669;DHT22;59898;52.786;6.892;2023-05-21T08:28:04;20.60;99.90
52669;DHT22;59898;52.786;6.892;2023-05-21T08:31:24;20.90;99.90
52669;DHT22;59898;52.786;6.892;2023-05-21T08:34:45;21.10;99.90
52669;DHT22;59898;52.786;6.892;2023-05-21T08:38:06;21.40;99.90
52669;DHT22;59898;52.786;6.892;2023-05-21T08:41:27;21.60;99.90
52669;DHT22;59898;52.786;6.892;2023-05-21T08:44:51;21.70;99.90
52669;DHT22;59898;52.786;6.892;2023-05-21T08:48:15;21.90;99.90
52669;DHT22;59898;52.786;6.892;2023-05-21T08:51:36;22.00;99.90
52669;DHT22;59898;52.786;6.892;2023-05-21T08:54:58;22.10;99.90
52669;DHT22;59898;52.786;6.892;2023-05-21T08:58:19;22.20;99.90
52669;DHT22;59898;52.786;6.892;2023-05-21T09:01:40;22.30;99.90
52669;DHT22;59898;52.786;6.892;2023-05-21T09:05:05;22.30;99.90
52669;DHT22;59898;52.786;6.892;2023-05-21T09:08:34;22.40;99.90
52669;DHT22;59898;52.786;6.892;2023-05-21T09:11:55;22.50;99.90
52669;DHT22;59898;52.786;6.892;2023-05-21T09:15:15;22.50;99.90
52669;DHT22;59898;52.786;6.892;2023-05-21T09:18:36;22.60;99.90
52669;DHT22;59898;52.786;6.892;2023-05-21T09:22:03;22.60;99.90
52669;DHT22;59898;52.786;6.892;2023-05-21T16:30:47;24.50;99.90
52669;DHT22;59898;52.786;6.892;2023-05-21T16:34:07;24.40;99.90
52669;DHT22;59898;52.786;6.892;2023-05-21T16:37:28;24.30;99.90
52669;DHT22;59898;52.786;6.892;2023-05-21T16:40:48;24.10;99.90
52669;DHT22;59898;52.786;6.892;2023-05-21T16:44:09;24.10;99.90
52669;DHT22;59898;52.786;6.892;2023-05-21T16:47:30;24.00;99.90
52669;DHT22;59898;52.786;6.892;2023-05-21T16:50:50;23.90;99.90
52669;DHT22;59898;52.786;6.892;2023-05-21T16:54:11;23.80;99.90
52669;DHT22;59898;52.786;6.892;2023-05-21T16:57:31;23.70;99.90
52669;DHT22;59898;52.786;6.892;2023-05-21T17:00:52;23.60;99.90
52669;DHT22;59898;52.786;6.892;2023-05-21T17:26:08;24.30;99.90
52669;DHT22;59898;52.786;6.892;2023-05-21T17:48:33;23.70;99.90
52669;DHT22;59898;52.786;6.892;2023-05-21T17:51:54;23.70;99.90
52669;DHT22;59898;52.786;6.892;2023-05-21T17:55:14;23.60;99.90
52669;DHT22;59898;52.786;6.892;2023-05-21T17:58:35;23.60;99.90
52669;DHT22;59898;52.786;6.892;2023-05-21T18:01:56;23.50;99.90
52669;DHT22;59898;52.786;6.892;2023-05-21T18:05:20;23.50;99.90
52669;DHT22;59898;52.786;6.892;2023-05-21T18:08:42;23.50;99.90
52669;DHT22;59898;52.786;6.892;2023-05-21T18:12:02;23.40;99.90
52669;DHT22;59898;52.786;6.892;2023-05-21T18:15:23;23.40;99.90
52669;DHT22;59898;52.786;6.892;2023-05-21T18:18:44;23.40;99.90
52669;DHT22;59898;52.786;6.892;2023-05-21T18:22:04;23.40;99.90
52669;DHT22;59898;52.786;6.892;2023-05-21T18:25:25;23.40;99.90
52669;DHT22;59898;52.786;6.892;2023-05-21T18:28:45;23.40;99.90
52669;DHT22;59898;52.786;6.892;2023-05-21T18:32:06;23.40;99.90
52669;DHT22;59898;52.786;6.892;2023-05-21T18:35:27;23.30;99.90
52669;DHT22;59898;52.786;6.892;2023-05-21T18:38:50;23.30;99.90
52669;DHT22;59898;52.786;6.892;2023-05-21T18:42:11;23.40;99.90
52669;DHT22;59898;52.786;6.892;2023-05-21T18:45:32;23.30;99.90
52669;DHT22;59898;52.786;6.892;2023-05-21T18:48:53;23.40;99.90
52669;DHT22;59898;52.786;6.892;2023-05-21T18:52:14;23.40;99.90
52669;DHT22;59898;52.786;6.892;2023-05-21T18:55:34;23.40;99.90
52669;DHT22;59898;52.786;6.892;2023-05-21T18:58:55;23.40;99.90
52669;DHT22;59898;52.786;6.892;2023-05-21T19:02:15;23.40;99.90
52669;DHT22;59898;52.786;6.892;2023-05-21T19:05:36;23.40;99.90
52669;DHT22;59898;52.786;6.892;2023-05-21T19:08:57;23.40;99.90
52669;DHT22;59898;52.786;6.892;2023-05-21T19:12:17;23.40;99.90
52669;DHT22;59898;52.786;6.892;2023-05-21T19:15:38;23.50;99.90
52669;DHT22;59898;52.786;6.892;2023-05-21T19:18:59;23.50;99.90
52669;DHT22;59898;52.786;6.892;2023-05-21T19:22:20;23.50;99.90
52669;DHT22;59898;52.786;6.892;2023-05-21T19:25:40;23.50;99.90
52669;DHT22;59898;52.786;6.892;2023-05-21T19:29:01;23.50;99.90
52669;DHT22;59898;52.786;6.892;2023-05-21T19:32:22;23.50;99.90
52669;DHT22;59898;52.786;6.892;2023-05-21T19:35:43;23.50;99.90
52669;DHT22;59898;52.786;6.892;2023-05-21T19:39:03;23.50;99.90
52669;DHT22;59898;52.786;6.892;2023-05-21T19:42:24;23.50;99.90
52669;DHT22;59898;52.786;6.892;2023-05-21T19:45:46;23.50;99.90
52669;DHT22;59898;52.786;6.892;2023-05-21T19:49:06;23.50;99.90
52669;DHT22;59898;52.786;6.892;2023-05-21T19:52:29;23.50;99.90
52669;DHT22;59898;52.786;6.892;2023-05-21T19:55:50;23.50;99.90
52669;DHT22;59898;52.786;6.892;2023-05-21T19:59:10;23.50;99.90
52669;DHT22;59898;52.786;6.892;2023-05-21T20:02:31;23.50;99.90
52669;DHT22;59898;52.786;6.892;2023-05-21T20:05:53;23.50;99.90
52669;DHT22;59898;52.786;6.892;2023-05-21T20:09:15;23.50;99.90
52669;DHT22;59898;52.786;6.892;2023-05-21T20:12:37;23.50;99.90
52669;DHT22;59898;52.786;6.892;2023-05-21T20:15:57;23.50;99.90
52669;DHT22;59898;52.786;6.892;2023-05-21T20:19:18;23.40;99.90
52669;DHT22;59898;52.786;6.892;2023-05-21T20:22:41;23.40;99.90
52669;DHT22;59898;52.786;6.892;2023-05-21T20:26:02;23.40;99.90
52669;DHT22;59898;52.786;6.892;2023-05-21T20:29:22;23.40;99.90
52669;DHT22;59898;52.786;6.892;2023-05-21T20:32:43;23.40;99.90
52669;DHT22;59898;52.786;6.892;2023-05-21T20:36:03;23.40;99.90
52669;DHT22;59898;52.786;6.892;2023-05-21T20:39:24;23.40;99.90
52669;DHT22;59898;52.786;6.892;2023-05-21T20:42:49;23.40;99.90
52669;DHT22;59898;52.786;6.892;2023-05-21T20:46:13;23.40;99.90
52669;DHT22;59898;52.786;6.892;2023-05-21T20:49:36;23.40;99.90
52669;DHT22;59898;52.786;6.892;2023-05-21T20:52:57;23.40;99.90
52669;DHT22;59898;52.786;6.892;2023-05-21T20:56:18;23.40;99.90
52669;DHT22;59898;52.786;6.892;2023-05-21T20:59:39;23.40;99.90
52669;DHT22;59898;52.786;6.892;2023-05-21T21:02:59;23.40;99.90
52669;DHT22;59898;52.786;6.892;2023-05-21T21:06:21;23.40;99.90
52669;DHT22;59898;52.786;6.892;2023-05-21T21:09:45;23.40;99.90
52669;DHT22;59898;52.786;6.892;2023-05-21T21:13:06;23.40;99.90
52669;DHT22;59898;52.786;6.892;2023-05-21T21:16:27;23.40;99.90
52669;DHT22;59898;52.786;6.892;2023-05-21T21:19:47;23.40;99.90
52669;DHT22;59898;52.786;6.892;2023-05-21T21:23:08;23.40;99.90
52669;DHT22;59898;52.786;6.892;2023-05-21T21:26:28;23.40;99.90
52669;DHT22;59898;52.786;6.892;2023-05-21T21:29:49;23.40;99.90
52669;DHT22;59898;52.786;6.892;2023-05-21T21:33:10;23.40;99.90
52669;DHT22;59898;52.786;6.892;2023-05-21T21:36:31;23.30;99.90
52669;DHT22;59898;52.786;6.892;2023-05-21T21:39:52;23.30;99.90
52669;DHT22;59898;52.786;6.892;2023-05-21T21:43:12;23.30;99.90
52669;DHT22;59898;52.786;6.892;2023-05-21T21:46:33;23.30;99.90
52669;DHT22;59898;52.786;6.892;2023-05-21T21:49:53;23.30;99.90
52669;DHT22;59898;52.786;6.892;2023-05-21T21:53:15;23.30;99.90
52669;DHT22;59898;52.786;6.892;2023-05-21T21:56:35;23.30;99.90
52669;DHT22;59898;52.786;6.892;2023-05-21T21:59:56;23.30;99.90
52669;DHT22;59898;52.786;6.892;2023-05-21T22:03:17;23.30;99.90
52669;DHT22;59898;52.786;6.892;2023-05-21T22:06:38;23.30;99.90
52669;DHT22;59898;52.786;6.892;2023-05-21T22:09:59;23.30;99.90
52669;DHT22;59898;52.786;6.892;2023-05-21T22:13:19;23.30;99.90
52669;DHT22;59898;52.786;6.892;2023-05-21T22:16:40;23.30;99.90
52669;DHT22;59898;52.786;6.892;2023-05-21T22:20:00;23.20;99.90
52669;DHT22;59898;52.786;6.892;2023-05-21T22:23:21;23.30;99.90
52669;DHT22;59898;52.786;6.892;2023-05-21T22:26:42;23.20;99.90
52669;DHT22;59898;52.786;6.892;2023-05-21T22:30:03;23.20;99.90
52669;DHT22;59898;52.786;6.892;2023-05-21T22:33:25;23.20;99.90
52669;DHT22;59898;52.786;6.892;2023-05-21T22:36:46;23.20;99.90
52669;DHT22;59898;52.786;6.892;2023-05-21T22:40:07;23.20;99.90
52669;DHT22;59898;52.786;6.892;2023-05-21T22:43:28;23.20;99.90
52669;DHT22;59898;52.786;6.892;2023-05-21T22:46:49;23.20;99.90
52669;DHT22;59898;52.786;6.892;2023-05-21T22:50:11;23.20;99.90
52669;DHT22;59898;52.786;6.892;2023-05-21T22:53:32;23.20;99.90
52669;DHT22;59898;52.786;6.892;2023-05-21T22:56:52;23.20;99.90
52669;DHT22;59898;52.786;6.892;2023-05-21T23:00:13;23.20;99.90
52669;DHT22;59898;52.786;6.892;2023-05-21T23:03:34;23.20;99.90
52669;DHT22;59898;52.786;6.892;2023-05-21T23:06:54;23.20;99.90
52669;DHT22;59898;52.786;6.892;2023-05-21T23:10:15;23.20;99.90
52669;DHT22;59898;52.786;6.892;2023-05-21T23:13:35;23.20;99.90
52669;DHT22;59898;52.786;6.892;2023-05-21T23:16:56;23.20;99.90
52669;DHT22;59898;52.786;6.892;2023-05-21T23:20:20;23.20;99.90
52669;DHT22;59898;52.786;6.892;2023-05-21T23:23:42;23.20;99.90
52669;DHT22;59898;52.786;6.892;2023-05-21T23:27:02;23.20;99.90
52669;DHT22;59898;52.786;6.892;2023-05-21T23:30:23;23.20;99.90
52669;DHT22;59898;52.786;6.892;2023-05-21T23:33:43;23.20;99.90
52669;DHT22;59898;52.786;6.892;2023-05-21T23:37:04;23.10;99.90
52669;DHT22;59898;52.786;6.892;2023-05-21T23:40:24;23.10;99.90
52669;DHT22;59898;52.786;6.892;2023-05-21T23:43:45;23.10;99.90
52669;DHT22;59898;52.786;6.892;2023-05-21T23:47:06;23.20;99.90
52669;DHT22;59898;52.786;6.892;2023-05-21T23:50:26;23.20;99.90
52669;DHT22;59898;52.786;6.892;2023-05-21T23:53:47;23.10;99.90
52669;DHT22;59898;52.786;6.892;2023-05-21T23:57:07;23.10;99.90
